sensor_id;sensor_type;location;lat;lon;timestamp;P1;durP1;ratioP1;P2;durP2;ratioP2
75209;SDS011;63796;53.136;14.882;2023-02-27T00:00:32;5.50;;;1.40;;
75209;SDS011;63796;53.136;14.882;2023-02-27T00:03:19;6.40;;;2.10;;
75209;SDS011;63796;53.136;14.882;2023-02-27T00:05:47;6.80;;;2.20;;
75209;SDS011;63796;53.136;14.882;2023-02-27T00:08:14;5.70;;;1.90;;
75209;SDS011;63796;53.136;14.882;2023-02-27T00:10:42;5.40;;;1.90;;
75209;SDS011;63796;53.136;14.882;2023-02-27T00:13:09;8.50;;;2.10;;
75209;SDS011;63796;53.136;14.882;2023-02-27T00:15:36;5.90;;;2.10;;
75209;SDS011;63796;53.136;14.882;2023-02-27T00:18:06;10.00;;;1.70;;
75209;SDS011;63796;53.136;14.882;2023-02-27T00:20:34;5.70;;;1.70;;
75209;SDS011;63796;53.136;14.882;2023-02-27T00:23:04;4.90;;;1.70;;
75209;SDS011;63796;53.136;14.882;2023-02-27T00:25:33;5.40;;;1.60;;
75209;SDS011;63796;53.136;14.882;2023-02-27T00:28:01;4.00;;;1.40;;
75209;SDS011;63796;53.136;14.882;2023-02-27T00:30:30;6.10;;;1.20;;
75209;SDS011;63796;53.136;14.882;2023-02-27T00:32:58;2.80;;;0.80;;
75209;SDS011;63796;53.136;14.882;2023-02-27T00:35:25;2.60;;;0.80;;
75209;SDS011;63796;53.136;14.882;2023-02-27T00:37:53;4.70;;;1.10;;
75209;SDS011;63796;53.136;14.882;2023-02-27T00:40:20;4.00;;;1.10;;
75209;SDS011;63796;53.136;14.882;2023-02-27T00:42:47;6.20;;;1.90;;
75209;SDS011;63796;53.136;14.882;2023-02-27T00:45:15;3.20;;;0.90;;
75209;SDS011;63796;53.136;14.882;2023-02-27T00:47:42;5.10;;;0.90;;
75209;SDS011;63796;53.136;14.882;2023-02-27T00:50:11;1.70;;;0.70;;
75209;SDS011;63796;53.136;14.882;2023-02-27T00:52:38;3.70;;;1.20;;
75209;SDS011;63796;53.136;14.882;2023-02-27T00:55:06;3.30;;;1.10;;
75209;SDS011;63796;53.136;14.882;2023-02-27T00:57:34;2.30;;;0.90;;
75209;SDS011;63796;53.136;14.882;2023-02-27T01:00:02;3.50;;;1.00;;
75209;SDS011;63796;53.136;14.882;2023-02-27T01:02:31;3.30;;;0.90;;
75209;SDS011;63796;53.136;14.882;2023-02-27T01:04:59;3.30;;;0.90;;
75209;SDS011;63796;53.136;14.882;2023-02-27T01:07:27;2.30;;;0.60;;
75209;SDS011;63796;53.136;14.882;2023-02-27T01:09:54;1.70;;;0.50;;
75209;SDS011;63796;53.136;14.882;2023-02-27T01:12:21;1.40;;;0.50;;
75209;SDS011;63796;53.136;14.882;2023-02-27T01:14:49;2.90;;;0.80;;
75209;SDS011;63796;53.136;14.882;2023-02-27T01:17:16;3.30;;;0.50;;
75209;SDS011;63796;53.136;14.882;2023-02-27T01:19:43;3.90;;;0.40;;
75209;SDS011;63796;53.136;14.882;2023-02-27T01:22:10;3.30;;;0.40;;
75209;SDS011;63796;53.136;14.882;2023-02-27T01:24:38;3.00;;;0.50;;
75209;SDS011;63796;53.136;14.882;2023-02-27T01:27:05;2.90;;;0.50;;
75209;SDS011;63796;53.136;14.882;2023-02-27T01:29:33;4.50;;;0.80;;
75209;SDS011;63796;53.136;14.882;2023-02-27T01:32:00;3.60;;;0.70;;
75209;SDS011;63796;53.136;14.882;2023-02-27T01:34:28;1.30;;;0.40;;
75209;SDS011;63796;53.136;14.882;2023-02-27T01:36:55;2.40;;;0.70;;
75209;SDS011;63796;53.136;14.882;2023-02-27T01:39:22;2.10;;;0.70;;
75209;SDS011;63796;53.136;14.882;2023-02-27T01:41:49;3.40;;;1.00;;
75209;SDS011;63796;53.136;14.882;2023-02-27T01:44:17;5.10;;;0.60;;
75209;SDS011;63796;53.136;14.882;2023-02-27T01:46:44;1.40;;;0.40;;
75209;SDS011;63796;53.136;14.882;2023-02-27T01:49:24;1.60;;;0.60;;
75209;SDS011;63796;53.136;14.882;2023-02-27T01:51:56;2.40;;;0.70;;
75209;SDS011;63796;53.136;14.882;2023-02-27T01:54:31;2.80;;;0.90;;
75209;SDS011;63796;53.136;14.882;2023-02-27T01:57:00;4.90;;;1.30;;
75209;SDS011;63796;53.136;14.882;2023-02-27T01:59:29;2.50;;;0.60;;
75209;SDS011;63796;53.136;14.882;2023-02-27T02:01:57;2.30;;;0.60;;
75209;SDS011;63796;53.136;14.882;2023-02-27T02:04:27;3.20;;;0.90;;
75209;SDS011;63796;53.136;14.882;2023-02-27T02:07:07;5.20;;;1.00;;
75209;SDS011;63796;53.136;14.882;2023-02-27T02:09:38;3.90;;;1.00;;
75209;SDS011;63796;53.136;14.882;2023-02-27T02:12:08;2.00;;;0.60;;
75209;SDS011;63796;53.136;14.882;2023-02-27T02:14:37;3.70;;;1.00;;
75209;SDS011;63796;53.136;14.882;2023-02-27T02:17:21;2.50;;;0.70;;
75209;SDS011;63796;53.136;14.882;2023-02-27T02:32:10;2.50;;;1.00;;
75209;SDS011;63796;53.136;14.882;2023-02-27T02:40:56;3.70;;;0.80;;
75209;SDS011;63796;53.136;14.882;2023-02-27T02:43:37;2.00;;;0.50;;
75209;SDS011;63796;53.136;14.882;2023-02-27T02:49:24;3.30;;;0.80;;
75209;SDS011;63796;53.136;14.882;2023-02-27T02:57:09;1.80;;;0.70;;
75209;SDS011;63796;53.136;14.882;2023-02-27T02:59:49;3.90;;;0.80;;
75209;SDS011;63796;53.136;14.882;2023-02-27T03:02:22;4.80;;;0.70;;
75209;SDS011;63796;53.136;14.882;2023-02-27T03:07:31;3.20;;;0.90;;
75209;SDS011;63796;53.136;14.882;2023-02-27T03:10:06;3.00;;;1.10;;
75209;SDS011;63796;53.136;14.882;2023-02-27T03:12:36;5.80;;;1.00;;
75209;SDS011;63796;53.136;14.882;2023-02-27T03:15:12;1.60;;;0.60;;
75209;SDS011;63796;53.136;14.882;2023-02-27T03:17:58;4.50;;;0.80;;
75209;SDS011;63796;53.136;14.882;2023-02-27T03:20:32;2.10;;;0.80;;
75209;SDS011;63796;53.136;14.882;2023-02-27T03:23:05;2.70;;;1.10;;
75209;SDS011;63796;53.136;14.882;2023-02-27T03:25:36;3.20;;;1.30;;
75209;SDS011;63796;53.136;14.882;2023-02-27T03:28:07;2.90;;;1.20;;
75209;SDS011;63796;53.136;14.882;2023-02-27T03:30:50;3.90;;;1.50;;
75209;SDS011;63796;53.136;14.882;2023-02-27T03:33:21;2.20;;;1.00;;
75209;SDS011;63796;53.136;14.882;2023-02-27T03:36:05;4.30;;;1.30;;
75209;SDS011;63796;53.136;14.882;2023-02-27T03:38:41;2.30;;;1.10;;
75209;SDS011;63796;53.136;14.882;2023-02-27T03:41:19;6.10;;;2.30;;
75209;SDS011;63796;53.136;14.882;2023-02-27T03:46:43;5.00;;;1.90;;
75209;SDS011;63796;53.136;14.882;2023-02-27T03:49:10;6.30;;;1.50;;
75209;SDS011;63796;53.136;14.882;2023-02-27T03:51:37;5.10;;;1.10;;
75209;SDS011;63796;53.136;14.882;2023-02-27T03:54:10;4.30;;;1.40;;
75209;SDS011;63796;53.136;14.882;2023-02-27T03:59:06;5.30;;;1.80;;
75209;SDS011;63796;53.136;14.882;2023-02-27T04:01:33;6.80;;;1.90;;
75209;SDS011;63796;53.136;14.882;2023-02-27T04:04:06;4.70;;;1.70;;
75209;SDS011;63796;53.136;14.882;2023-02-27T04:06:35;6.60;;;1.90;;
75209;SDS011;63796;53.136;14.882;2023-02-27T04:09:34;3.00;;;1.40;;
75209;SDS011;63796;53.136;14.882;2023-02-27T04:18:27;4.50;;;1.40;;
75209;SDS011;63796;53.136;14.882;2023-02-27T04:20:38;4.60;;;1.70;;
75209;SDS011;63796;53.136;14.882;2023-02-27T04:23:22;4.00;;;1.90;;
75209;SDS011;63796;53.136;14.882;2023-02-27T04:26:50;7.10;;;1.50;;
75209;SDS011;63796;53.136;14.882;2023-02-27T04:34:13;4.10;;;2.10;;
75209;SDS011;63796;53.136;14.882;2023-02-27T04:39:25;5.30;;;2.40;;
75209;SDS011;63796;53.136;14.882;2023-02-27T04:41:57;4.20;;;1.60;;
75209;SDS011;63796;53.136;14.882;2023-02-27T04:44:27;4.70;;;2.00;;
75209;SDS011;63796;53.136;14.882;2023-02-27T04:46:57;7.20;;;3.10;;
75209;SDS011;63796;53.136;14.882;2023-02-27T04:49:35;48.80;;;15.20;;
75209;SDS011;63796;53.136;14.882;2023-02-27T04:54:49;13.50;;;5.00;;
75209;SDS011;63796;53.136;14.882;2023-02-27T04:57:26;9.50;;;2.60;;
75209;SDS011;63796;53.136;14.882;2023-02-27T04:59:56;12.20;;;4.80;;
75209;SDS011;63796;53.136;14.882;2023-02-27T05:02:32;15.70;;;8.20;;
75209;SDS011;63796;53.136;14.882;2023-02-27T05:05:08;12.60;;;7.00;;
75209;SDS011;63796;53.136;14.882;2023-02-27T05:08:20;8.90;;;4.30;;
75209;SDS011;63796;53.136;14.882;2023-02-27T05:10:52;33.30;;;16.40;;
75209;SDS011;63796;53.136;14.882;2023-02-27T05:13:25;11.20;;;5.60;;
75209;SDS011;63796;53.136;14.882;2023-02-27T05:16:02;10.20;;;4.60;;
75209;SDS011;63796;53.136;14.882;2023-02-27T05:18:30;25.50;;;11.50;;
75209;SDS011;63796;53.136;14.882;2023-02-27T05:21:21;62.60;;;20.50;;
75209;SDS011;63796;53.136;14.882;2023-02-27T05:29:33;32.00;;;11.90;;
75209;SDS011;63796;53.136;14.882;2023-02-27T05:35:04;17.80;;;5.00;;
75209;SDS011;63796;53.136;14.882;2023-02-27T05:38:04;22.50;;;8.90;;
75209;SDS011;63796;53.136;14.882;2023-02-27T05:40:35;23.20;;;11.30;;
75209;SDS011;63796;53.136;14.882;2023-02-27T05:43:08;6.90;;;3.40;;
75209;SDS011;63796;53.136;14.882;2023-02-27T05:45:38;7.30;;;3.50;;
75209;SDS011;63796;53.136;14.882;2023-02-27T05:48:10;8.20;;;4.30;;
75209;SDS011;63796;53.136;14.882;2023-02-27T05:50:39;10.70;;;3.30;;
75209;SDS011;63796;53.136;14.882;2023-02-27T05:53:12;6.60;;;3.10;;
75209;SDS011;63796;53.136;14.882;2023-02-27T05:55:50;39.10;;;11.60;;
75209;SDS011;63796;53.136;14.882;2023-02-27T05:58:23;44.50;;;19.80;;
75209;SDS011;63796;53.136;14.882;2023-02-27T06:01:00;24.80;;;13.20;;
75209;SDS011;63796;53.136;14.882;2023-02-27T06:03:30;15.90;;;6.80;;
75209;SDS011;63796;53.136;14.882;2023-02-27T06:06:00;13.00;;;6.40;;
75209;SDS011;63796;53.136;14.882;2023-02-27T06:08:28;15.00;;;6.20;;
75209;SDS011;63796;53.136;14.882;2023-02-27T06:10:55;14.90;;;5.10;;
75209;SDS011;63796;53.136;14.882;2023-02-27T06:13:23;7.20;;;4.20;;
75209;SDS011;63796;53.136;14.882;2023-02-27T06:15:52;9.10;;;4.70;;
75209;SDS011;63796;53.136;14.882;2023-02-27T06:18:19;11.70;;;5.10;;
75209;SDS011;63796;53.136;14.882;2023-02-27T06:20:48;12.20;;;6.10;;
75209;SDS011;63796;53.136;14.882;2023-02-27T06:23:15;10.30;;;4.70;;
75209;SDS011;63796;53.136;14.882;2023-02-27T06:25:43;8.80;;;4.40;;
75209;SDS011;63796;53.136;14.882;2023-02-27T06:28:10;10.80;;;4.70;;
75209;SDS011;63796;53.136;14.882;2023-02-27T06:30:38;9.40;;;4.10;;
75209;SDS011;63796;53.136;14.882;2023-02-27T06:33:05;12.50;;;4.50;;
75209;SDS011;63796;53.136;14.882;2023-02-27T06:35:33;13.70;;;4.70;;
75209;SDS011;63796;53.136;14.882;2023-02-27T06:38:01;13.80;;;4.00;;
75209;SDS011;63796;53.136;14.882;2023-02-27T06:40:28;11.50;;;5.30;;
75209;SDS011;63796;53.136;14.882;2023-02-27T06:42:55;18.10;;;7.10;;
75209;SDS011;63796;53.136;14.882;2023-02-27T06:45:22;12.80;;;5.40;;
75209;SDS011;63796;53.136;14.882;2023-02-27T06:47:50;130.60;;;26.60;;
75209;SDS011;63796;53.136;14.882;2023-02-27T06:50:17;129.20;;;29.30;;
75209;SDS011;63796;53.136;14.882;2023-02-27T06:52:44;171.10;;;45.20;;
75209;SDS011;63796;53.136;14.882;2023-02-27T06:55:12;147.90;;;33.20;;
75209;SDS011;63796;53.136;14.882;2023-02-27T06:57:39;99.10;;;25.70;;
75209;SDS011;63796;53.136;14.882;2023-02-27T07:00:07;32.50;;;13.20;;
75209;SDS011;63796;53.136;14.882;2023-02-27T07:02:36;16.60;;;6.30;;
75209;SDS011;63796;53.136;14.882;2023-02-27T07:05:03;16.50;;;6.30;;
75209;SDS011;63796;53.136;14.882;2023-02-27T07:07:34;34.80;;;9.90;;
75209;SDS011;63796;53.136;14.882;2023-02-27T07:10:10;32.50;;;10.80;;
75209;SDS011;63796;53.136;14.882;2023-02-27T07:12:38;95.00;;;31.60;;
75209;SDS011;63796;53.136;14.882;2023-02-27T07:15:07;88.20;;;31.30;;
75209;SDS011;63796;53.136;14.882;2023-02-27T07:17:34;86.80;;;29.90;;
75209;SDS011;63796;53.136;14.882;2023-02-27T07:20:06;30.70;;;13.10;;
75209;SDS011;63796;53.136;14.882;2023-02-27T07:22:35;25.10;;;10.60;;
75209;SDS011;63796;53.136;14.882;2023-02-27T07:25:04;16.30;;;6.90;;
75209;SDS011;63796;53.136;14.882;2023-02-27T07:27:31;10.60;;;4.70;;
75209;SDS011;63796;53.136;14.882;2023-02-27T07:29:58;7.10;;;4.00;;
75209;SDS011;63796;53.136;14.882;2023-02-27T07:32:27;6.10;;;3.50;;
75209;SDS011;63796;53.136;14.882;2023-02-27T07:34:54;7.00;;;3.60;;
75209;SDS011;63796;53.136;14.882;2023-02-27T07:37:21;6.40;;;2.70;;
75209;SDS011;63796;53.136;14.882;2023-02-27T07:39:49;5.70;;;2.80;;
75209;SDS011;63796;53.136;14.882;2023-02-27T07:42:16;4.20;;;2.50;;
75209;SDS011;63796;53.136;14.882;2023-02-27T07:44:43;6.40;;;2.80;;
75209;SDS011;63796;53.136;14.882;2023-02-27T07:47:11;7.90;;;2.80;;
75209;SDS011;63796;53.136;14.882;2023-02-27T07:49:38;4.80;;;2.40;;
75209;SDS011;63796;53.136;14.882;2023-02-27T07:52:05;5.10;;;2.20;;
75209;SDS011;63796;53.136;14.882;2023-02-27T07:54:34;7.20;;;2.90;;
75209;SDS011;63796;53.136;14.882;2023-02-27T07:57:04;6.90;;;2.60;;
75209;SDS011;63796;53.136;14.882;2023-02-27T07:59:31;7.10;;;2.40;;
75209;SDS011;63796;53.136;14.882;2023-02-27T08:01:59;7.10;;;2.50;;
75209;SDS011;63796;53.136;14.882;2023-02-27T08:04:26;7.40;;;2.80;;
75209;SDS011;63796;53.136;14.882;2023-02-27T08:06:54;9.50;;;3.00;;
75209;SDS011;63796;53.136;14.882;2023-02-27T08:09:21;8.30;;;2.90;;
75209;SDS011;63796;53.136;14.882;2023-02-27T08:11:48;4.10;;;2.70;;
75209;SDS011;63796;53.136;14.882;2023-02-27T08:14:15;6.00;;;3.10;;
75209;SDS011;63796;53.136;14.882;2023-02-27T08:16:43;7.20;;;2.80;;
75209;SDS011;63796;53.136;14.882;2023-02-27T08:19:12;5.80;;;2.60;;
75209;SDS011;63796;53.136;14.882;2023-02-27T08:21:39;5.90;;;2.70;;
75209;SDS011;63796;53.136;14.882;2023-02-27T08:24:07;8.10;;;3.40;;
75209;SDS011;63796;53.136;14.882;2023-02-27T08:26:34;7.70;;;3.00;;
75209;SDS011;63796;53.136;14.882;2023-02-27T08:29:01;8.00;;;4.50;;
75209;SDS011;63796;53.136;14.882;2023-02-27T08:31:29;9.70;;;4.70;;
75209;SDS011;63796;53.136;14.882;2023-02-27T08:33:56;5.50;;;3.60;;
75209;SDS011;63796;53.136;14.882;2023-02-27T08:36:36;9.00;;;4.40;;
75209;SDS011;63796;53.136;14.882;2023-02-27T08:39:04;4.80;;;2.90;;
75209;SDS011;63796;53.136;14.882;2023-02-27T08:41:32;6.80;;;2.80;;
75209;SDS011;63796;53.136;14.882;2023-02-27T08:43:59;6.00;;;2.10;;
75209;SDS011;63796;53.136;14.882;2023-02-27T08:46:26;5.90;;;2.40;;
75209;SDS011;63796;53.136;14.882;2023-02-27T08:48:54;5.00;;;2.10;;
75209;SDS011;63796;53.136;14.882;2023-02-27T08:51:21;6.50;;;2.20;;
75209;SDS011;63796;53.136;14.882;2023-02-27T08:53:49;4.50;;;2.40;;
75209;SDS011;63796;53.136;14.882;2023-02-27T08:56:16;4.00;;;2.30;;
75209;SDS011;63796;53.136;14.882;2023-02-27T08:58:43;5.70;;;2.40;;
75209;SDS011;63796;53.136;14.882;2023-02-27T09:01:11;4.20;;;1.90;;
75209;SDS011;63796;53.136;14.882;2023-02-27T09:03:38;6.30;;;2.10;;
75209;SDS011;63796;53.136;14.882;2023-02-27T09:06:05;6.10;;;2.70;;
75209;SDS011;63796;53.136;14.882;2023-02-27T09:08:33;5.60;;;2.80;;
75209;SDS011;63796;53.136;14.882;2023-02-27T09:11:00;4.50;;;2.50;;
75209;SDS011;63796;53.136;14.882;2023-02-27T09:13:29;4.60;;;2.10;;
75209;SDS011;63796;53.136;14.882;2023-02-27T09:15:56;2.80;;;2.00;;
75209;SDS011;63796;53.136;14.882;2023-02-27T09:18:24;5.60;;;2.50;;
75209;SDS011;63796;53.136;14.882;2023-02-27T09:20:51;10.10;;;4.10;;
75209;SDS011;63796;53.136;14.882;2023-02-27T09:23:18;11.50;;;4.60;;
75209;SDS011;63796;53.136;14.882;2023-02-27T09:25:46;8.70;;;4.50;;
75209;SDS011;63796;53.136;14.882;2023-02-27T09:28:14;7.00;;;3.70;;
75209;SDS011;63796;53.136;14.882;2023-02-27T09:30:41;6.40;;;3.10;;
75209;SDS011;63796;53.136;14.882;2023-02-27T09:33:08;7.40;;;3.10;;
75209;SDS011;63796;53.136;14.882;2023-02-27T09:35:36;6.30;;;3.00;;
75209;SDS011;63796;53.136;14.882;2023-02-27T09:38:03;74.00;;;29.10;;
75209;SDS011;63796;53.136;14.882;2023-02-27T09:40:37;62.90;;;25.00;;
75209;SDS011;63796;53.136;14.882;2023-02-27T09:43:33;191.50;;;57.80;;
75209;SDS011;63796;53.136;14.882;2023-02-27T09:46:02;33.00;;;11.50;;
75209;SDS011;63796;53.136;14.882;2023-02-27T09:48:49;6.20;;;2.90;;
75209;SDS011;63796;53.136;14.882;2023-02-27T09:51:18;6.00;;;2.60;;
75209;SDS011;63796;53.136;14.882;2023-02-27T09:53:51;5.70;;;2.50;;
75209;SDS011;63796;53.136;14.882;2023-02-27T09:56:38;166.60;;;36.70;;
75209;SDS011;63796;53.136;14.882;2023-02-27T10:02:03;11.60;;;3.80;;
75209;SDS011;63796;53.136;14.882;2023-02-27T10:07:05;19.50;;;5.70;;
75209;SDS011;63796;53.136;14.882;2023-02-27T10:12:52;5.30;;;2.80;;
75209;SDS011;63796;53.136;14.882;2023-02-27T10:15:29;7.80;;;3.10;;
75209;SDS011;63796;53.136;14.882;2023-02-27T10:20:44;6.20;;;2.90;;
75209;SDS011;63796;53.136;14.882;2023-02-27T10:23:17;124.50;;;37.70;;
75209;SDS011;63796;53.136;14.882;2023-02-27T10:25:49;67.40;;;21.20;;
75209;SDS011;63796;53.136;14.882;2023-02-27T10:28:20;30.10;;;11.00;;
75209;SDS011;63796;53.136;14.882;2023-02-27T10:30:53;8.60;;;4.30;;
75209;SDS011;63796;53.136;14.882;2023-02-27T10:33:32;30.80;;;12.70;;
75209;SDS011;63796;53.136;14.882;2023-02-27T10:36:02;17.50;;;7.60;;
75209;SDS011;63796;53.136;14.882;2023-02-27T10:38:53;9.20;;;4.60;;
75209;SDS011;63796;53.136;14.882;2023-02-27T10:41:22;9.80;;;3.50;;
75209;SDS011;63796;53.136;14.882;2023-02-27T10:43:55;6.70;;;2.80;;
75209;SDS011;63796;53.136;14.882;2023-02-27T10:46:28;21.70;;;12.50;;
75209;SDS011;63796;53.136;14.882;2023-02-27T10:48:58;5.90;;;3.50;;
75209;SDS011;63796;53.136;14.882;2023-02-27T10:51:31;13.60;;;11.70;;
75209;SDS011;63796;53.136;14.882;2023-02-27T10:56:44;8.30;;;4.20;;
75209;SDS011;63796;53.136;14.882;2023-02-27T10:59:21;5.60;;;2.40;;
75209;SDS011;63796;53.136;14.882;2023-02-27T11:01:53;7.00;;;4.80;;
75209;SDS011;63796;53.136;14.882;2023-02-27T11:04:40;4.60;;;3.20;;
75209;SDS011;63796;53.136;14.882;2023-02-27T11:07:13;10.70;;;7.70;;
75209;SDS011;63796;53.136;14.882;2023-02-27T11:09:58;4.10;;;2.50;;
75209;SDS011;63796;53.136;14.882;2023-02-27T11:12:29;7.30;;;4.40;;
75209;SDS011;63796;53.136;14.882;2023-02-27T11:15:00;5.30;;;3.30;;
75209;SDS011;63796;53.136;14.882;2023-02-27T11:17:33;4.60;;;1.80;;
75209;SDS011;63796;53.136;14.882;2023-02-27T11:20:03;17.30;;;12.80;;
75209;SDS011;63796;53.136;14.882;2023-02-27T11:22:32;7.30;;;3.90;;
75209;SDS011;63796;53.136;14.882;2023-02-27T11:27:47;1.90;;;1.70;;
75209;SDS011;63796;53.136;14.882;2023-02-27T11:30:22;3.20;;;1.70;;
75209;SDS011;63796;53.136;14.882;2023-02-27T11:32:51;24.00;;;12.00;;
75209;SDS011;63796;53.136;14.882;2023-02-27T11:35:30;6.40;;;2.90;;
75209;SDS011;63796;53.136;14.882;2023-02-27T11:38:01;20.70;;;13.10;;
75209;SDS011;63796;53.136;14.882;2023-02-27T11:40:46;19.80;;;14.10;;
75209;SDS011;63796;53.136;14.882;2023-02-27T11:43:19;4.60;;;3.10;;
75209;SDS011;63796;53.136;14.882;2023-02-27T11:46:07;6.60;;;4.40;;
75209;SDS011;63796;53.136;14.882;2023-02-27T11:54:31;1.10;;;0.60;;
75209;SDS011;63796;53.136;14.882;2023-02-27T11:59:50;1.50;;;0.30;;
75209;SDS011;63796;53.136;14.882;2023-02-27T12:05:23;4.60;;;4.10;;
75209;SDS011;63796;53.136;14.882;2023-02-27T12:07:53;1.80;;;1.30;;
75209;SDS011;63796;53.136;14.882;2023-02-27T12:13:48;0.50;;;0.20;;
75209;SDS011;63796;53.136;14.882;2023-02-27T12:19:03;1.80;;;1.00;;
75209;SDS011;63796;53.136;14.882;2023-02-27T12:21:36;4.00;;;1.00;;
75209;SDS011;63796;53.136;14.882;2023-02-27T12:24:35;1.80;;;0.90;;
75209;SDS011;63796;53.136;14.882;2023-02-27T12:27:18;3.40;;;2.10;;
75209;SDS011;63796;53.136;14.882;2023-02-27T12:30:20;2.30;;;2.10;;
75209;SDS011;63796;53.136;14.882;2023-02-27T12:33:00;2.20;;;1.20;;
75209;SDS011;63796;53.136;14.882;2023-02-27T12:35:30;2.20;;;0.20;;
75209;SDS011;63796;53.136;14.882;2023-02-27T12:38:01;2.30;;;0.50;;
75209;SDS011;63796;53.136;14.882;2023-02-27T12:40:33;8.80;;;7.30;;
75209;SDS011;63796;53.136;14.882;2023-02-27T12:43:46;5.60;;;2.70;;
75209;SDS011;63796;53.136;14.882;2023-02-27T12:49:15;2.50;;;1.30;;
75209;SDS011;63796;53.136;14.882;2023-02-27T12:51:56;4.30;;;1.50;;
75209;SDS011;63796;53.136;14.882;2023-02-27T12:54:34;13.50;;;7.50;;
75209;SDS011;63796;53.136;14.882;2023-02-27T13:10:50;5.50;;;2.90;;
75209;SDS011;63796;53.136;14.882;2023-02-27T13:13:27;3.90;;;2.90;;
75209;SDS011;63796;53.136;14.882;2023-02-27T13:16:03;1.20;;;0.90;;
75209;SDS011;63796;53.136;14.882;2023-02-27T13:18:39;2.00;;;1.20;;
75209;SDS011;63796;53.136;14.882;2023-02-27T13:29:00;3.00;;;1.00;;
75209;SDS011;63796;53.136;14.882;2023-02-27T13:34:13;3.90;;;1.40;;
75209;SDS011;63796;53.136;14.882;2023-02-27T13:36:43;11.10;;;4.50;;
75209;SDS011;63796;53.136;14.882;2023-02-27T13:45:01;2.70;;;1.10;;
75209;SDS011;63796;53.136;14.882;2023-02-27T13:50:00;2.70;;;1.60;;
75209;SDS011;63796;53.136;14.882;2023-02-27T13:52:36;3.90;;;2.50;;
75209;SDS011;63796;53.136;14.882;2023-02-27T13:55:06;3.50;;;2.00;;
75209;SDS011;63796;53.136;14.882;2023-02-27T13:57:53;10.60;;;2.20;;
75209;SDS011;63796;53.136;14.882;2023-02-27T14:00:24;5.30;;;1.80;;
75209;SDS011;63796;53.136;14.882;2023-02-27T14:02:55;9.30;;;4.30;;
75209;SDS011;63796;53.136;14.882;2023-02-27T14:05:38;7.60;;;2.00;;
75209;SDS011;63796;53.136;14.882;2023-02-27T14:08:23;6.50;;;1.80;;
75209;SDS011;63796;53.136;14.882;2023-02-27T14:25:01;6.40;;;2.90;;
75209;SDS011;63796;53.136;14.882;2023-02-27T14:27:47;4.40;;;1.80;;
75209;SDS011;63796;53.136;14.882;2023-02-27T14:30:42;11.10;;;3.40;;
75209;SDS011;63796;53.136;14.882;2023-02-27T14:33:21;2.50;;;1.10;;
75209;SDS011;63796;53.136;14.882;2023-02-27T14:38:43;24.90;;;8.00;;
75209;SDS011;63796;53.136;14.882;2023-02-27T14:43:56;5.80;;;1.40;;
75209;SDS011;63796;53.136;14.882;2023-02-27T14:46:30;21.00;;;7.30;;
75209;SDS011;63796;53.136;14.882;2023-02-27T14:49:05;16.20;;;5.20;;
75209;SDS011;63796;53.136;14.882;2023-02-27T14:51:34;42.70;;;13.70;;
75209;SDS011;63796;53.136;14.882;2023-02-27T14:54:13;12.80;;;3.40;;
75209;SDS011;63796;53.136;14.882;2023-02-27T14:56:59;3.60;;;1.00;;
75209;SDS011;63796;53.136;14.882;2023-02-27T14:59:33;4.30;;;0.80;;
75209;SDS011;63796;53.136;14.882;2023-02-27T15:02:02;14.90;;;5.40;;
75209;SDS011;63796;53.136;14.882;2023-02-27T15:04:31;7.50;;;3.30;;
75209;SDS011;63796;53.136;14.882;2023-02-27T15:06:59;10.10;;;3.80;;
75209;SDS011;63796;53.136;14.882;2023-02-27T15:09:41;5.70;;;2.20;;
75209;SDS011;63796;53.136;14.882;2023-02-27T15:12:17;13.40;;;5.20;;
75209;SDS011;63796;53.136;14.882;2023-02-27T15:14:49;14.50;;;6.40;;
75209;SDS011;63796;53.136;14.882;2023-02-27T15:17:21;7.50;;;2.30;;
75209;SDS011;63796;53.136;14.882;2023-02-27T15:19:56;6.90;;;2.70;;
75209;SDS011;63796;53.136;14.882;2023-02-27T15:22:27;5.70;;;1.80;;
75209;SDS011;63796;53.136;14.882;2023-02-27T15:25:06;6.10;;;2.30;;
75209;SDS011;63796;53.136;14.882;2023-02-27T15:27:34;16.60;;;6.50;;
75209;SDS011;63796;53.136;14.882;2023-02-27T15:30:04;12.80;;;4.60;;
75209;SDS011;63796;53.136;14.882;2023-02-27T15:32:40;12.70;;;5.30;;
75209;SDS011;63796;53.136;14.882;2023-02-27T15:35:12;11.20;;;3.80;;
75209;SDS011;63796;53.136;14.882;2023-02-27T15:37:45;9.60;;;4.00;;
75209;SDS011;63796;53.136;14.882;2023-02-27T15:40:20;5.10;;;1.90;;
75209;SDS011;63796;53.136;14.882;2023-02-27T15:42:49;4.20;;;2.00;;
75209;SDS011;63796;53.136;14.882;2023-02-27T15:45:24;12.10;;;4.70;;
75209;SDS011;63796;53.136;14.882;2023-02-27T15:47:53;22.80;;;11.10;;
75209;SDS011;63796;53.136;14.882;2023-02-27T15:50:26;7.30;;;3.00;;
75209;SDS011;63796;53.136;14.882;2023-02-27T15:53:09;9.40;;;4.00;;
75209;SDS011;63796;53.136;14.882;2023-02-27T15:55:40;10.40;;;3.80;;
75209;SDS011;63796;53.136;14.882;2023-02-27T15:58:23;33.00;;;15.30;;
75209;SDS011;63796;53.136;14.882;2023-02-27T16:01:00;13.00;;;5.40;;
75209;SDS011;63796;53.136;14.882;2023-02-27T16:03:35;20.20;;;9.70;;
75209;SDS011;63796;53.136;14.882;2023-02-27T16:06:09;12.10;;;5.60;;
75209;SDS011;63796;53.136;14.882;2023-02-27T16:08:43;13.30;;;5.80;;
75209;SDS011;63796;53.136;14.882;2023-02-27T16:11:22;15.70;;;7.70;;
75209;SDS011;63796;53.136;14.882;2023-02-27T16:13:51;19.30;;;8.40;;
75209;SDS011;63796;53.136;14.882;2023-02-27T16:18:51;12.20;;;4.10;;
75209;SDS011;63796;53.136;14.882;2023-02-27T16:21:21;11.50;;;5.10;;
75209;SDS011;63796;53.136;14.882;2023-02-27T16:23:49;10.30;;;5.20;;
75209;SDS011;63796;53.136;14.882;2023-02-27T16:26:19;10.20;;;4.00;;
75209;SDS011;63796;53.136;14.882;2023-02-27T16:29:15;12.30;;;6.00;;
75209;SDS011;63796;53.136;14.882;2023-02-27T16:31:54;12.40;;;5.40;;
75209;SDS011;63796;53.136;14.882;2023-02-27T16:34:38;7.80;;;3.50;;
75209;SDS011;63796;53.136;14.882;2023-02-27T16:37:28;11.40;;;3.80;;
75209;SDS011;63796;53.136;14.882;2023-02-27T16:39:56;14.30;;;6.30;;
75209;SDS011;63796;53.136;14.882;2023-02-27T16:42:23;13.00;;;6.80;;
75209;SDS011;63796;53.136;14.882;2023-02-27T16:44:51;15.10;;;5.70;;
75209;SDS011;63796;53.136;14.882;2023-02-27T16:47:18;15.70;;;5.30;;
75209;SDS011;63796;53.136;14.882;2023-02-27T16:49:45;19.20;;;6.90;;
75209;SDS011;63796;53.136;14.882;2023-02-27T16:52:15;22.30;;;7.70;;
75209;SDS011;63796;53.136;14.882;2023-02-27T16:54:42;20.30;;;7.70;;
75209;SDS011;63796;53.136;14.882;2023-02-27T16:57:10;23.90;;;7.00;;
75209;SDS011;63796;53.136;14.882;2023-02-27T16:59:38;19.20;;;7.10;;
75209;SDS011;63796;53.136;14.882;2023-02-27T17:02:11;23.50;;;8.50;;
75209;SDS011;63796;53.136;14.882;2023-02-27T17:04:39;18.40;;;7.00;;
75209;SDS011;63796;53.136;14.882;2023-02-27T17:07:15;27.30;;;8.40;;
75209;SDS011;63796;53.136;14.882;2023-02-27T17:09:44;22.70;;;7.70;;
75209;SDS011;63796;53.136;14.882;2023-02-27T17:12:12;27.40;;;8.40;;
75209;SDS011;63796;53.136;14.882;2023-02-27T17:14:40;25.20;;;7.90;;
75209;SDS011;63796;53.136;14.882;2023-02-27T17:17:07;32.30;;;9.60;;
75209;SDS011;63796;53.136;14.882;2023-02-27T17:19:37;26.50;;;8.20;;
75209;SDS011;63796;53.136;14.882;2023-02-27T17:22:04;23.40;;;7.20;;
75209;SDS011;63796;53.136;14.882;2023-02-27T17:24:31;22.20;;;7.50;;
75209;SDS011;63796;53.136;14.882;2023-02-27T17:26:59;23.30;;;7.90;;
75209;SDS011;63796;53.136;14.882;2023-02-27T17:29:26;20.80;;;7.10;;